Terminal Aerodrome Forecast
Issued by NWS

Home | Current Version | Previous Version | Text Only | Print | Product List | Glossary On
Versions: 1 2 3 4 5 6 7 8 9 10 11 12 13 14 15 16
000
FTUS44 KBMX 192300
TAFEET
TAF
KEET 192340Z 2000/2024 36003KT P6SM -RA OVC100
     FM200600 36003KT 5SM -RA BR OVC035
     FM201200 36003KT P6SM BKN050
     FM201800 35004KT P6SM SCT080=

USA.gov is the U.S. government's official web portal to all federal, state and local government web resources and services.